createdAt,value
2019-03-22T00:00:05.058Z,64.80
2019-03-22T00:01:05.250Z,64.70
2019-03-22T00:02:07.842Z,64.60
2019-03-22T00:03:05.828Z,64.60
2019-03-22T00:04:08.552Z,64.90
2019-03-22T00:05:05.716Z,64.90
2019-03-22T00:06:05.909Z,64.80
2019-03-22T00:07:05.045Z,64.70
2019-03-22T00:08:05.177Z,64.60
2019-03-22T00:09:05.335Z,64.60
2019-03-22T00:10:05.622Z,64.60
2019-03-22T00:11:05.821Z,64.90
2019-03-22T00:12:06.096Z,64.90
2019-03-22T00:13:07.994Z,64.90
2019-03-22T00:14:05.065Z,65.00
2019-03-22T00:15:05.592Z,65.00
2019-03-22T00:16:05.800Z,65.10
2019-03-22T00:17:05.911Z,65.70
2019-03-22T00:18:07.628Z,65.60
2019-03-22T00:19:05.737Z,65.60
2019-03-22T00:20:08.538Z,65.50
2019-03-22T00:21:08.012Z,65.50
2019-03-22T00:22:07.505Z,65.40
2019-03-22T00:23:05.541Z,65.40
2019-03-22T00:24:05.732Z,65.40
2019-03-22T00:25:05.862Z,65.50
2019-03-22T00:26:07.569Z,65.70
2019-03-22T00:27:17.016Z,65.70
2019-03-22T00:28:07.668Z,67.10
2019-03-22T00:29:08.203Z,67.20
2019-03-22T00:30:07.767Z,67.20
2019-03-22T00:31:05.788Z,67.20
2019-03-22T00:32:05.948Z,67.40
2019-03-22T00:33:07.533Z,67.30
2019-03-22T00:34:05.556Z,67.20
2019-03-22T00:35:05.711Z,67.20
2019-03-22T00:36:05.933Z,67.20
2019-03-22T00:37:05.168Z,67.30
2019-03-22T00:38:05.366Z,67.50
2019-03-22T00:39:05.663Z,16.10
2019-03-22T00:40:08.284Z,67.40
2019-03-22T00:41:07.831Z,67.30
2019-03-22T00:42:08.382Z,67.20
2019-03-22T00:43:05.537Z,67.20
2019-03-22T00:44:05.915Z,67.60
2019-03-22T00:45:07.787Z,67.50
2019-03-22T00:46:05.797Z,67.50
2019-03-22T00:47:05.977Z,67.50
2019-03-22T00:48:05.059Z,67.70
2019-03-22T00:49:05.189Z,67.70
2019-03-22T00:50:05.338Z,67.70
2019-03-22T00:51:08.196Z,67.60
2019-03-22T00:52:05.222Z,67.60
2019-03-22T00:53:12.966Z,68.00
2019-03-22T00:54:05.035Z,68.00
2019-03-22T00:55:07.739Z,67.80
2019-03-22T00:56:10.836Z,67.70
2019-03-22T00:57:05.857Z,67.80
2019-03-22T00:58:05.060Z,67.70
2019-03-22T00:59:05.290Z,67.80
2019-03-22T01:00:05.465Z,67.80
2019-03-22T01:01:08.218Z,67.70
2019-03-22T01:02:05.427Z,67.70
2019-03-22T01:03:05.662Z,67.70
2019-03-22T01:04:05.829Z,67.70
2019-03-22T01:05:04.984Z,67.60
2019-03-22T01:06:05.153Z,67.40
2019-03-22T01:07:07.804Z,67.50
2019-03-22T01:08:08.294Z,67.30
2019-03-22T01:09:05.331Z,67.30
2019-03-22T01:10:08.203Z,67.50
2019-03-22T01:11:05.403Z,67.30
2019-03-22T01:12:08.077Z,67.70
2019-03-22T01:13:05.212Z,67.50
2019-03-22T01:14:05.678Z,67.70
2019-03-22T01:15:05.851Z,67.70
2019-03-22T01:16:08.608Z,68.10
2019-03-22T01:17:05.622Z,68.20
2019-03-22T01:18:05.747Z,68.30
2019-03-22T01:19:08.467Z,68.80
2019-03-22T01:20:05.526Z,68.90
2019-03-22T01:21:05.794Z,69.20
2019-03-22T01:22:04.977Z,69.20
2019-03-22T01:23:05.243Z,68.80
2019-03-22T01:24:07.889Z,68.60
2019-03-22T01:25:05.891Z,68.60
2019-03-22T01:26:05.009Z,68.60
2019-03-22T01:27:07.699Z,68.50
2019-03-22T01:28:05.853Z,68.50
2019-03-22T01:29:05.098Z,68.50
2019-03-22T01:30:05.237Z,68.60
2019-03-22T01:31:05.380Z,68.80
2019-03-22T01:32:05.500Z,68.70
2019-03-22T01:33:08.231Z,68.60
2019-03-22T01:34:07.786Z,68.70
2019-03-22T01:35:05.756Z,68.70
2019-03-22T01:36:05.927Z,68.50
2019-03-22T01:37:07.654Z,68.70
2019-03-22T01:38:05.772Z,68.70
2019-03-22T01:39:05.967Z,68.70
2019-03-22T01:40:12.709Z,69.00
2019-03-22T01:41:10.744Z,68.90
2019-03-22T01:42:05.753Z,69.00
2019-03-22T01:43:05.879Z,69.00
2019-03-22T01:44:07.670Z,68.70
2019-03-22T01:45:05.731Z,68.70
2019-03-22T01:46:05.886Z,68.70
2019-03-22T01:47:05.026Z,68.60
2019-03-22T01:48:08.103Z,69.00
2019-03-22T01:49:05.062Z,69.00
2019-03-22T01:50:05.189Z,68.90
2019-03-22T01:51:07.936Z,69.10
2019-03-22T01:52:08.588Z,69.00
2019-03-22T01:53:08.090Z,69.00
2019-03-22T01:54:07.731Z,68.90
2019-03-22T01:55:08.439Z,68.90
2019-03-22T01:56:08.071Z,68.90
2019-03-22T01:57:07.749Z,68.90
2019-03-22T01:58:05.921Z,68.90
2019-03-22T01:59:07.648Z,69.20
2019-03-22T02:00:08.238Z,69.00
2019-03-22T02:01:05.226Z,69.20
2019-03-22T02:02:05.466Z,69.20
2019-03-22T02:03:05.827Z,69.10
2019-03-22T02:04:05.025Z,69.20
2019-03-22T02:05:07.824Z,69.00
2019-03-22T02:06:05.876Z,69.00
2019-03-22T02:07:05.020Z,69.10
2019-03-22T02:08:08.154Z,69.00
2019-03-22T02:09:05.125Z,69.00
2019-03-22T02:10:05.194Z,68.90
2019-03-22T02:11:05.309Z,68.90
2019-03-22T02:12:07.946Z,68.90
2019-03-22T02:13:05.996Z,68.90
2019-03-22T02:14:05.224Z,69.00
2019-03-22T02:15:10.469Z,69.10
2019-03-22T02:16:08.021Z,69.00
2019-03-22T02:17:07.523Z,69.10
2019-03-22T02:18:05.559Z,69.20
2019-03-22T02:19:05.703Z,69.10
2019-03-22T02:20:05.839Z,69.10
2019-03-22T02:21:08.462Z,69.20
2019-03-22T02:22:07.954Z,69.20
2019-03-22T02:23:05.882Z,69.20
2019-03-22T02:24:07.491Z,69.40
2019-03-22T02:25:08.039Z,69.10
2019-03-22T02:26:07.555Z,69.60
2019-03-22T02:27:05.715Z,69.50
2019-03-22T02:28:05.994Z,70.20
2019-03-22T02:29:05.219Z,70.40
2019-03-22T02:30:05.539Z,70.50
2019-03-22T02:31:05.850Z,70.90
2019-03-22T02:32:05.045Z,71.20
2019-03-22T02:33:07.893Z,71.00
2019-03-22T02:34:10.972Z,71.00
2019-03-22T02:35:07.553Z,71.00
2019-03-22T02:36:05.754Z,71.00
2019-03-22T02:37:05.949Z,70.90
2019-03-22T02:38:05.144Z,70.80
2019-03-22T02:39:05.353Z,70.70
2019-03-22T02:40:08.165Z,70.70
2019-03-22T02:41:07.672Z,70.60
2019-03-22T02:42:05.868Z,70.60
2019-03-22T02:43:05.055Z,70.50
2019-03-22T02:44:07.773Z,70.20
2019-03-22T02:45:05.845Z,70.20
2019-03-22T02:46:04.984Z,70.10
2019-03-22T02:47:07.742Z,70.10
2019-03-22T02:48:08.309Z,70.20
2019-03-22T02:49:05.379Z,70.20
2019-03-22T02:50:19.339Z,70.20
2019-03-22T02:51:05.306Z,70.20
2019-03-22T02:52:05.482Z,70.30
2019-03-22T02:53:10.659Z,70.70
2019-03-22T02:54:05.648Z,70.70
2019-03-22T02:55:05.765Z,70.60
2019-03-22T02:56:06.120Z,70.60
2019-03-22T02:57:05.467Z,70.60
2019-03-22T02:58:21.421Z,70.90
2019-03-22T02:59:05.699Z,70.90
2019-03-22T03:00:08.442Z,70.90
2019-03-22T03:01:05.496Z,70.80
2019-03-22T03:02:05.655Z,70.90
2019-03-22T03:03:08.306Z,71.00
2019-03-22T03:04:05.217Z,71.00
2019-03-22T03:05:08.069Z,71.30
2019-03-22T03:06:05.231Z,71.30
2019-03-22T03:07:07.971Z,71.40
2019-03-22T03:08:07.573Z,71.50
2019-03-22T03:09:05.738Z,71.50
2019-03-22T03:10:08.432Z,72.00
2019-03-22T03:11:08.050Z,72.50
2019-03-22T03:12:05.169Z,72.50
2019-03-22T03:13:08.017Z,72.90
2019-03-22T03:14:04.980Z,72.90
2019-03-22T03:15:05.280Z,73.00
2019-03-22T03:16:05.507Z,73.00
2019-03-22T03:17:08.191Z,72.90
2019-03-22T03:18:05.184Z,72.90
2019-03-22T03:19:07.816Z,72.80
2019-03-22T03:20:05.996Z,72.70
2019-03-22T03:21:10.413Z,72.70
2019-03-22T03:22:05.572Z,72.70
2019-03-22T03:23:08.353Z,73.20
2019-03-22T03:24:05.469Z,73.20
2019-03-22T03:25:08.122Z,73.70
2019-03-22T03:26:05.122Z,73.70
2019-03-22T03:27:07.961Z,73.40
2019-03-22T03:28:05.067Z,73.50
2019-03-22T03:29:10.364Z,73.40
2019-03-22T03:30:05.729Z,73.40
2019-03-22T03:31:06.005Z,73.60
2019-03-22T03:32:05.337Z,73.70
2019-03-22T03:33:05.498Z,73.60
2019-03-22T03:34:08.244Z,73.70
2019-03-22T03:35:05.201Z,73.70
2019-03-22T03:36:05.314Z,73.70
2019-03-22T03:37:07.925Z,73.90
2019-03-22T03:38:05.994Z,73.80
2019-03-22T03:39:05.090Z,74.00
2019-03-22T03:40:05.432Z,74.10
2019-03-22T03:41:05.662Z,74.10
2019-03-22T03:42:08.528Z,74.00
2019-03-22T03:43:05.563Z,74.10
2019-03-22T03:44:05.050Z,74.10
2019-03-22T03:45:05.317Z,74.10
2019-03-22T03:46:05.489Z,73.90
2019-03-22T03:47:10.968Z,74.10
2019-03-22T03:48:05.016Z,74.00
2019-03-22T03:49:05.124Z,74.10
2019-03-22T03:50:07.793Z,74.10
2019-03-22T03:51:05.847Z,74.10
2019-03-22T03:52:08.559Z,74.10
2019-03-22T03:53:05.700Z,74.10
2019-03-22T03:54:06.037Z,74.00
2019-03-22T03:55:05.247Z,74.00
2019-03-22T03:56:05.415Z,74.00
2019-03-22T03:57:08.189Z,74.10
2019-03-22T03:58:05.423Z,74.10
2019-03-22T03:59:08.251Z,74.10
2019-03-22T04:00:05.361Z,74.10
2019-03-22T04:01:05.427Z,74.10
2019-03-22T04:02:05.720Z,74.20
2019-03-22T04:03:05.960Z,74.30
2019-03-22T04:04:05.382Z,74.30
2019-03-22T04:05:05.517Z,74.20
2019-03-22T04:06:10.999Z,74.30
2019-03-22T04:07:07.536Z,74.30
2019-03-22T04:08:05.603Z,74.30
2019-03-22T04:09:08.373Z,74.40
2019-03-22T04:10:05.548Z,74.30
2019-03-22T04:11:08.407Z,74.30
2019-03-22T04:12:07.984Z,74.30
2019-03-22T04:13:07.529Z,74.40
2019-03-22T04:14:05.565Z,74.40
2019-03-22T04:15:05.724Z,74.40
2019-03-22T04:16:05.866Z,74.40
2019-03-22T04:17:05.168Z,74.40
2019-03-22T04:18:05.686Z,74.50
2019-03-22T04:19:08.449Z,74.50
2019-03-22T04:20:05.533Z,74.60
2019-03-22T04:21:05.647Z,74.60
2019-03-22T04:22:05.749Z,74.70
2019-03-22T04:23:05.875Z,74.90
2019-03-22T04:24:05.030Z,75.40
2019-03-22T04:25:05.314Z,75.40
2019-03-22T04:26:08.071Z,75.40
2019-03-22T04:27:05.100Z,75.40
2019-03-22T04:28:05.244Z,75.40
2019-03-22T04:29:08.955Z,75.50
2019-03-22T04:30:05.371Z,75.50
2019-03-22T04:31:05.682Z,75.30
2019-03-22T04:32:08.376Z,75.90
2019-03-22T04:33:07.383Z,75.80
2019-03-22T04:34:05.551Z,75.90
2019-03-22T04:35:08.357Z,75.60
2019-03-22T04:36:05.395Z,75.60
2019-03-22T04:37:05.450Z,75.80
2019-03-22T04:38:05.641Z,76.10
2019-03-22T04:39:05.812Z,76.60
2019-03-22T04:40:13.465Z,76.50
2019-03-22T04:41:05.462Z,76.50
2019-03-22T04:42:05.605Z,76.50
2019-03-22T04:43:05.789Z,76.70
2019-03-22T04:44:05.223Z,76.80
2019-03-22T04:45:05.341Z,76.90
2019-03-22T04:46:08.026Z,77.40
2019-03-22T04:47:10.193Z,77.50
2019-03-22T04:48:07.761Z,78.00
2019-03-22T04:49:08.283Z,78.50
2019-03-22T04:50:07.904Z,78.60
2019-03-22T04:51:06.103Z,78.40
2019-03-22T04:52:07.846Z,78.60
2019-03-22T04:53:05.859Z,78.40
2019-03-22T04:54:05.144Z,78.40
2019-03-22T04:55:05.336Z,78.60
2019-03-22T04:56:08.166Z,78.40
2019-03-22T04:57:05.263Z,78.40
2019-03-22T04:58:08.022Z,78.40
2019-03-22T04:59:05.132Z,78.40
2019-03-22T05:00:05.365Z,78.40
2019-03-22T05:01:08.067Z,78.40
2019-03-22T05:02:05.183Z,78.40
2019-03-22T05:03:05.509Z,78.30
2019-03-22T05:04:08.178Z,78.30
2019-03-22T05:05:05.309Z,78.30
2019-03-22T05:06:05.639Z,78.10
2019-03-22T05:07:08.320Z,78.40
2019-03-22T05:08:05.342Z,78.40
2019-03-22T05:09:13.055Z,78.60
2019-03-22T05:10:05.149Z,78.60
2019-03-22T05:11:07.953Z,78.60
2019-03-22T05:12:06.070Z,78.60
2019-03-22T05:13:05.251Z,78.60
2019-03-22T05:14:05.391Z,78.50
2019-03-22T05:15:08.175Z,78.50
2019-03-22T05:16:05.407Z,78.50
2019-03-22T05:17:08.114Z,78.40
2019-03-22T05:18:07.645Z,78.40
2019-03-22T05:19:07.756Z,78.40
2019-03-22T05:20:05.848Z,78.40
2019-03-22T05:21:07.506Z,78.30
2019-03-22T05:22:08.043Z,78.30
2019-03-22T05:23:05.350Z,78.30
2019-03-22T05:24:08.070Z,78.10
2019-03-22T05:25:05.835Z,78.10
2019-03-22T05:26:08.690Z,78.20
2019-03-22T05:27:05.700Z,78.30
2019-03-22T05:28:05.193Z,78.20
2019-03-22T05:29:05.395Z,78.30
2019-03-22T05:30:05.570Z,78.20
2019-03-22T05:31:05.805Z,78.20
2019-03-22T05:32:06.053Z,78.30
2019-03-22T05:33:05.356Z,78.40
2019-03-22T05:34:05.620Z,78.40
2019-03-22T05:35:07.797Z,78.40
2019-03-22T05:36:05.958Z,78.70
2019-03-22T05:37:05.118Z,78.80
2019-03-22T05:38:05.431Z,78.80
2019-03-22T05:39:05.780Z,78.80
2019-03-22T05:40:07.556Z,78.80
2019-03-22T05:41:05.564Z,78.80
2019-03-22T05:42:05.693Z,78.80
2019-03-22T05:43:05.852Z,78.90
2019-03-22T05:44:07.609Z,78.80
2019-03-22T05:45:05.914Z,78.80
2019-03-22T05:46:05.176Z,78.70
2019-03-22T05:47:05.497Z,78.70
2019-03-22T05:48:05.855Z,78.70
2019-03-22T05:49:07.682Z,78.90
2019-03-22T05:50:05.830Z,78.90
2019-03-22T05:51:07.516Z,78.60
2019-03-22T05:52:05.653Z,78.60
2019-03-22T05:53:08.321Z,78.90
2019-03-22T05:54:08.007Z,78.80
2019-03-22T05:55:07.599Z,78.90
2019-03-22T05:56:05.711Z,78.90
2019-03-22T05:57:14.136Z,79.00
2019-03-22T05:58:05.470Z,79.00
2019-03-22T05:59:05.758Z,79.00
2019-03-22T06:00:11.270Z,79.10
2019-03-22T06:01:05.478Z,79.10
2019-03-22T06:02:09.004Z,79.20
2019-03-22T06:03:05.347Z,79.30
2019-03-22T06:04:05.882Z,79.10
2019-03-22T06:05:05.224Z,79.40
2019-03-22T06:06:05.408Z,79.30
2019-03-22T06:07:05.663Z,79.60
2019-03-22T06:08:08.358Z,79.50
2019-03-22T06:09:05.560Z,79.50
2019-03-22T06:10:08.415Z,79.60
2019-03-22T06:11:05.651Z,79.60
2019-03-22T06:12:08.373Z,79.50
2019-03-22T06:13:05.389Z,79.50
2019-03-22T06:14:05.792Z,79.60
2019-03-22T06:15:05.975Z,79.60
2019-03-22T06:16:07.826Z,79.60
2019-03-22T06:17:05.907Z,79.60
2019-03-22T06:18:05.028Z,79.70
2019-03-22T06:19:07.821Z,79.50
2019-03-22T06:20:05.891Z,79.50
2019-03-22T06:21:07.738Z,79.50
2019-03-22T06:22:05.919Z,79.50
2019-03-22T06:23:05.222Z,79.60
2019-03-22T06:24:07.903Z,79.40
2019-03-22T06:25:08.581Z,79.50
2019-03-22T06:26:08.830Z,79.50
2019-03-22T06:27:08.533Z,79.50
2019-03-22T06:28:05.667Z,79.80
2019-03-22T06:29:05.911Z,79.50
2019-03-22T06:30:05.157Z,79.50
2019-03-22T06:31:05.330Z,79.60
2019-03-22T06:32:05.294Z,79.70
2019-03-22T06:33:07.990Z,79.80
2019-03-22T06:34:05.104Z,79.80
2019-03-22T06:35:08.006Z,79.60
2019-03-22T06:36:05.045Z,79.60
2019-03-22T06:37:05.821Z,79.70
2019-03-22T06:38:10.191Z,79.60
2019-03-22T06:39:10.262Z,79.80
2019-03-22T06:40:05.404Z,79.80
2019-03-22T06:41:05.640Z,79.90
2019-03-22T06:42:05.829Z,79.80
2019-03-22T06:43:06.205Z,79.60
2019-03-22T06:44:08.106Z,79.40
2019-03-22T06:45:10.186Z,79.20
2019-03-22T06:46:05.188Z,79.20
2019-03-22T06:47:11.647Z,78.70
2019-03-22T06:48:08.188Z,78.30
2019-03-22T06:49:10.287Z,77.80
2019-03-22T06:50:05.240Z,77.80
2019-03-22T06:51:05.350Z,77.50
2019-03-22T06:52:05.585Z,76.90
2019-03-22T06:53:08.847Z,75.90
2019-03-22T06:54:13.850Z,75.60
2019-03-22T06:55:08.666Z,75.30
2019-03-22T06:56:05.875Z,75.30
2019-03-22T06:57:05.213Z,75.10
2019-03-22T06:58:07.871Z,74.50
2019-03-22T06:59:08.468Z,73.90
2019-03-22T07:00:07.522Z,73.90
2019-03-22T07:01:13.517Z,72.80
2019-03-22T07:02:08.176Z,72.20
2019-03-22T07:03:05.350Z,72.20
2019-03-22T07:04:08.077Z,72.00
2019-03-22T07:05:05.089Z,72.00
2019-03-22T07:06:10.301Z,70.90
2019-03-22T07:07:05.351Z,70.90
2019-03-22T07:08:05.611Z,70.80
2019-03-22T07:09:05.787Z,69.80
2019-03-22T07:10:06.012Z,69.40
2019-03-22T07:11:07.696Z,68.70
2019-03-22T07:12:05.849Z,68.80
2019-03-22T07:13:07.592Z,67.50
2019-03-22T07:14:05.816Z,67.50
2019-03-22T07:15:07.540Z,66.90
2019-03-22T07:16:08.245Z,66.70
2019-03-22T07:17:05.322Z,66.70
2019-03-22T07:18:08.085Z,66.10
2019-03-22T07:19:05.123Z,66.10
2019-03-22T07:20:07.788Z,65.70
2019-03-22T07:21:06.055Z,65.60
2019-03-22T07:22:07.827Z,65.00
2019-03-22T07:23:08.503Z,64.80
2019-03-22T07:24:05.556Z,64.80
2019-03-22T07:25:10.899Z,63.60
2019-03-22T07:26:08.417Z,63.70
2019-03-22T07:27:07.933Z,63.70
2019-03-22T07:28:05.999Z,63.70
2019-03-22T07:29:05.195Z,63.50
2019-03-22T07:30:19.332Z,63.00
2019-03-22T07:31:05.551Z,63.00
2019-03-22T07:32:08.313Z,61.30
2019-03-22T07:33:07.829Z,60.90
2019-03-22T07:34:13.486Z,61.00
2019-03-22T07:35:08.116Z,61.00
2019-03-22T07:36:05.183Z,61.00
2019-03-22T07:37:05.346Z,60.80
2019-03-22T07:38:05.714Z,60.80
2019-03-22T07:39:06.146Z,60.80
2019-03-22T07:40:05.505Z,60.40
2019-03-22T07:41:08.138Z,60.30
2019-03-22T07:42:05.168Z,60.20
2019-03-22T07:43:10.495Z,59.90
2019-03-22T07:44:05.084Z,60.00
2019-03-22T07:45:05.285Z,60.00
2019-03-22T07:46:08.148Z,59.50
2019-03-22T07:47:07.838Z,59.60
2019-03-22T07:48:05.885Z,59.50
2019-03-22T07:49:05.153Z,59.40
2019-03-22T07:50:05.533Z,59.40
2019-03-22T07:51:05.768Z,58.80
2019-03-22T07:52:08.437Z,58.50
2019-03-22T07:53:05.713Z,58.40
2019-03-22T07:54:08.410Z,58.60
2019-03-22T07:55:05.413Z,58.60
2019-03-22T07:56:05.579Z,58.70
2019-03-22T07:57:05.744Z,58.80
2019-03-22T07:58:06.153Z,58.50
2019-03-22T07:59:10.344Z,57.90
2019-03-22T08:00:05.409Z,57.80
2019-03-22T08:01:05.676Z,57.40
2019-03-22T08:02:10.989Z,57.60
2019-03-22T08:03:05.229Z,57.60
2019-03-22T08:04:08.013Z,57.60
2019-03-22T08:05:05.142Z,57.50
2019-03-22T08:06:05.679Z,57.60
2019-03-22T08:07:05.890Z,57.50
2019-03-22T08:08:10.396Z,57.30
2019-03-22T08:09:05.396Z,57.20
2019-03-22T08:10:08.285Z,57.40
2019-03-22T08:11:07.892Z,57.10
2019-03-22T08:12:06.096Z,57.10
2019-03-22T08:13:05.333Z,57.00
2019-03-22T08:14:07.978Z,56.90
2019-03-22T08:15:05.026Z,5.60
2019-03-22T08:16:05.331Z,57.00
2019-03-22T08:17:05.571Z,56.80
2019-03-22T08:18:05.757Z,56.90
2019-03-22T08:19:05.900Z,57.10
2019-03-22T08:20:07.591Z,56.80
2019-03-22T08:21:05.634Z,56.80
2019-03-22T08:22:08.417Z,56.50
2019-03-22T08:23:07.997Z,56.50
2019-03-22T08:24:07.531Z,56.30
2019-03-22T08:25:08.171Z,56.30
2019-03-22T08:26:05.393Z,56.30
2019-03-22T08:27:05.507Z,56.20
2019-03-22T08:28:08.178Z,55.60
2019-03-22T08:29:05.243Z,55.60
2019-03-22T08:30:05.503Z,55.70
2019-03-22T08:31:06.149Z,55.60
2019-03-22T08:32:08.006Z,55.80
2019-03-22T08:33:05.085Z,55.70
2019-03-22T08:34:05.259Z,55.20
2019-03-22T08:35:05.562Z,55.20
2019-03-22T08:36:08.376Z,54.90
2019-03-22T08:37:05.686Z,54.90
2019-03-22T08:38:11.092Z,54.90
2019-03-22T08:39:05.134Z,54.90
2019-03-22T08:40:05.449Z,54.90
2019-03-22T08:41:08.313Z,55.10
2019-03-22T08:42:05.532Z,55.10
2019-03-22T08:43:05.710Z,55.20
2019-03-22T08:44:07.893Z,54.70
2019-03-22T08:45:11.869Z,54.70
2019-03-22T08:46:05.975Z,54.70
2019-03-22T08:47:05.128Z,54.80
2019-03-22T08:48:05.356Z,54.70
2019-03-22T08:49:10.086Z,55.00
2019-03-22T08:50:07.694Z,55.10
2019-03-22T08:51:05.804Z,55.10
2019-03-22T08:52:08.594Z,55.10
2019-03-22T08:53:05.830Z,55.10
2019-03-22T08:54:08.627Z,55.00
2019-03-22T08:55:05.787Z,55.00
2019-03-22T08:56:05.866Z,55.10
2019-03-22T08:57:05.144Z,54.80
2019-03-22T08:58:07.786Z,55.10
2019-03-22T08:59:08.341Z,55.30
2019-03-22T09:00:05.348Z,55.30
2019-03-22T09:01:08.418Z,55.20
2019-03-22T09:02:08.612Z,55.20
2019-03-22T09:03:08.445Z,55.10
2019-03-22T09:04:07.988Z,54.80
2019-03-22T09:05:06.004Z,54.80
2019-03-22T09:06:08.563Z,54.80
2019-03-22T09:07:05.723Z,54.80
2019-03-22T09:08:08.620Z,54.80
2019-03-22T09:09:05.725Z,54.90
2019-03-22T09:10:08.598Z,54.70
2019-03-22T09:11:05.630Z,54.70
2019-03-22T09:12:05.915Z,54.60
2019-03-22T09:13:05.275Z,54.50
2019-03-22T09:14:08.049Z,54.50
2019-03-22T09:15:05.092Z,54.40
2019-03-22T09:16:07.787Z,54.50
2019-03-22T09:17:05.906Z,54.50
2019-03-22T09:18:05.136Z,54.40
2019-03-22T09:19:10.341Z,54.10
2019-03-22T09:20:07.932Z,54.00
2019-03-22T09:21:06.054Z,54.00
2019-03-22T09:22:10.350Z,54.30
2019-03-22T09:23:07.996Z,54.20
2019-03-22T09:24:05.942Z,54.20
2019-03-22T09:25:08.029Z,54.10
2019-03-22T09:26:05.365Z,54.10
2019-03-22T09:27:10.540Z,53.90
2019-03-22T09:28:10.826Z,53.90
2019-03-22T09:29:05.880Z,53.90
2019-03-22T09:30:07.791Z,54.00
2019-03-22T09:31:11.411Z,54.10
2019-03-22T09:32:05.956Z,53.90
2019-03-22T09:33:07.784Z,54.00
2019-03-22T09:34:11.064Z,54.20
2019-03-22T09:35:07.624Z,54.20
2019-03-22T09:36:10.728Z,54.00
2019-03-22T09:37:07.600Z,54.00
2019-03-22T09:38:13.609Z,54.10
2019-03-22T09:39:08.851Z,53.70
2019-03-22T09:40:08.843Z,53.70
2019-03-22T09:41:05.075Z,53.80
2019-03-22T09:42:05.407Z,54.00
2019-03-22T09:43:13.298Z,53.70
2019-03-22T09:44:07.802Z,53.90
2019-03-22T09:45:08.703Z,53.70
2019-03-22T09:46:08.463Z,53.60
2019-03-22T09:47:08.056Z,53.60
2019-03-22T09:48:06.611Z,53.50
2019-03-22T09:49:06.050Z,53.40
2019-03-22T09:50:10.523Z,53.30
2019-03-22T09:51:08.130Z,52.40
2019-03-22T09:52:07.730Z,51.50
2019-03-22T09:53:08.373Z,50.90
2019-03-22T09:54:05.379Z,50.90
2019-03-22T09:55:14.433Z,50.80
2019-03-22T09:56:08.287Z,51.10
2019-03-22T09:57:10.533Z,50.90
2019-03-22T09:58:08.134Z,50.30
2019-03-22T09:59:07.789Z,49.80
2019-03-22T10:00:06.055Z,49.90
2019-03-22T10:01:05.411Z,49.70
2019-03-22T10:02:05.625Z,49.70
2019-03-22T10:03:05.884Z,48.60
2019-03-22T10:04:07.594Z,48.00
2019-03-22T10:05:05.741Z,47.90
2019-03-22T10:06:05.966Z,47.60
2019-03-22T10:07:07.938Z,47.40
2019-03-22T10:08:11.083Z,47.50
2019-03-22T10:09:07.692Z,47.50
2019-03-22T10:10:08.381Z,47.40
2019-03-22T10:11:08.055Z,46.90
2019-03-22T10:12:05.102Z,46.80
2019-03-22T10:13:07.764Z,47.10
2019-03-22T10:14:05.790Z,47.10
2019-03-22T10:15:05.972Z,47.20
2019-03-22T10:16:07.835Z,47.60
2019-03-22T10:17:06.041Z,47.40
2019-03-22T10:18:07.970Z,47.20
2019-03-22T10:19:04.974Z,47.20
2019-03-22T10:20:07.771Z,46.80
2019-03-22T10:21:05.933Z,46.90
2019-03-22T10:22:10.171Z,46.60
2019-03-22T10:23:05.201Z,46.40
2019-03-22T10:24:10.848Z,46.30
2019-03-22T10:25:08.697Z,46.10
2019-03-22T10:26:05.892Z,46.10
2019-03-22T10:27:05.778Z,46.10
2019-03-22T10:28:05.957Z,46.10
2019-03-22T10:29:07.514Z,45.80
2019-03-22T10:30:05.782Z,45.80
2019-03-22T10:31:05.930Z,45.60
2019-03-22T10:32:05.152Z,45.70
2019-03-22T10:33:05.277Z,45.90
2019-03-22T10:34:08.037Z,45.30
2019-03-22T10:35:07.650Z,45.60
2019-03-22T10:36:05.777Z,45.60
2019-03-22T10:37:08.674Z,45.40
2019-03-22T10:38:16.743Z,45.50
2019-03-22T10:39:05.334Z,45.30
2019-03-22T10:40:05.510Z,45.00
2019-03-22T10:41:05.751Z,44.90
2019-03-22T10:42:08.460Z,44.40
2019-03-22T10:43:05.594Z,44.40
2019-03-22T10:44:07.881Z,44.00
2019-03-22T10:45:05.996Z,44.30
2019-03-22T10:46:08.317Z,44.20
2019-03-22T10:47:08.042Z,44.20
2019-03-22T10:48:05.136Z,44.10
2019-03-22T10:49:05.315Z,43.70
2019-03-22T10:50:05.494Z,43.70
2019-03-22T10:51:08.259Z,44.10
2019-03-22T10:52:05.474Z,44.10
2019-03-22T10:53:05.854Z,43.90
2019-03-22T10:54:08.701Z,43.50
2019-03-22T10:55:29.971Z,43.60
2019-03-22T10:56:08.121Z,43.60
2019-03-22T10:57:05.147Z,43.60
2019-03-22T10:58:19.685Z,43.60
2019-03-22T10:59:05.324Z,43.90
2019-03-22T11:00:08.144Z,43.70
2019-03-22T11:01:08.679Z,43.80
2019-03-22T11:02:08.258Z,43.50
2019-03-22T11:03:07.976Z,43.60
2019-03-22T11:05:05.123Z,43.70
2019-03-22T11:06:05.352Z,42.70
2019-03-22T11:07:05.529Z,42.60
2019-03-22T11:08:05.654Z,42.90
2019-03-22T11:09:11.017Z,43.10
2019-03-22T11:10:05.069Z,43.20
2019-03-22T11:11:08.000Z,43.50
2019-03-22T11:12:12.744Z,43.50
2019-03-22T11:13:05.127Z,43.20
2019-03-22T11:14:05.413Z,43.00
2019-03-22T11:15:08.298Z,42.60
2019-03-22T11:16:10.550Z,42.30
2019-03-22T11:17:05.701Z,42.20
2019-03-22T11:18:08.412Z,42.50
2019-03-22T11:19:07.979Z,42.80
2019-03-22T11:20:05.145Z,42.80
2019-03-22T11:21:06.088Z,42.80
2019-03-22T11:22:05.211Z,42.40
2019-03-22T11:23:05.341Z,42.50
2019-03-22T11:24:05.475Z,42.70
2019-03-22T11:25:08.189Z,42.50
2019-03-22T11:26:05.254Z,42.50
2019-03-22T11:27:08.095Z,42.00
2019-03-22T11:28:05.146Z,42.30
2019-03-22T11:29:07.833Z,42.00
2019-03-22T11:30:06.007Z,42.00
2019-03-22T11:31:10.290Z,41.80
2019-03-22T11:32:13.080Z,41.80
2019-03-22T11:33:05.308Z,42.00
2019-03-22T11:34:13.205Z,41.80
2019-03-22T11:35:05.297Z,41.80
2019-03-22T11:36:05.747Z,41.50
2019-03-22T11:37:08.552Z,41.30
2019-03-22T11:38:08.165Z,41.10
2019-03-22T11:39:16.134Z,41.40
2019-03-22T11:40:05.385Z,41.40
2019-03-22T11:41:08.127Z,41.40
2019-03-22T11:42:05.083Z,41.40
2019-03-22T11:43:09.301Z,41.40
2019-03-22T11:44:05.543Z,41.00
2019-03-22T11:45:05.882Z,41.50
2019-03-22T11:46:10.196Z,41.30
2019-03-22T11:47:05.281Z,41.30
2019-03-22T11:48:05.392Z,41.20
2019-03-22T11:49:05.627Z,41.40
2019-03-22T11:50:08.306Z,40.70
2019-03-22T11:51:05.389Z,40.70
2019-03-22T11:52:08.060Z,40.90
2019-03-22T11:53:07.575Z,40.60
2019-03-22T11:54:05.636Z,40.60
2019-03-22T11:55:05.850Z,40.50
2019-03-22T11:56:06.172Z,40.50
2019-03-22T11:57:08.079Z,40.70
2019-03-22T11:58:07.655Z,40.70
2019-03-22T11:59:10.871Z,40.90
2019-03-22T12:00:06.017Z,41.00
2019-03-22T12:01:05.248Z,40.50
2019-03-22T12:02:05.471Z,40.10
2019-03-22T12:03:05.766Z,40.60
2019-03-22T12:04:05.230Z,40.30
2019-03-22T12:05:07.969Z,40.30
2019-03-22T12:06:05.037Z,40.30
2019-03-22T12:07:05.154Z,40.30
2019-03-22T12:08:05.252Z,40.60
2019-03-22T12:09:07.917Z,41.00
2019-03-22T12:10:08.409Z,40.40
2019-03-22T12:11:05.534Z,40.40
2019-03-22T12:12:15.852Z,40.50
2019-03-22T12:13:05.926Z,40.60
2019-03-22T12:14:07.555Z,40.10
2019-03-22T12:15:08.632Z,40.50
2019-03-22T12:16:05.695Z,40.60
2019-03-22T12:17:05.867Z,40.60
2019-03-22T12:18:07.527Z,39.90
2019-03-22T12:19:05.560Z,40.00
2019-03-22T12:20:05.764Z,40.10
2019-03-22T12:21:05.873Z,40.20
2019-03-22T12:22:04.941Z,40.60
2019-03-22T12:23:05.178Z,40.90
2019-03-22T12:24:05.551Z,40.30
2019-03-22T12:25:05.763Z,40.40
2019-03-22T12:26:06.894Z,40.20
2019-03-22T12:27:07.558Z,40.40
2019-03-22T12:28:08.115Z,40.40
2019-03-22T12:29:05.215Z,40.40
2019-03-22T12:30:07.907Z,40.00
2019-03-22T12:31:08.517Z,40.00
2019-03-22T12:32:10.588Z,40.00
2019-03-22T12:33:05.610Z,40.00
2019-03-22T12:34:08.367Z,40.20
2019-03-22T12:35:05.537Z,40.00
2019-03-22T12:36:08.242Z,40.40
2019-03-22T12:37:05.329Z,40.40
2019-03-22T12:38:05.582Z,40.30
2019-03-22T12:39:05.788Z,40.30
2019-03-22T12:40:08.477Z,40.80
2019-03-22T12:41:08.084Z,40.70
2019-03-22T12:42:08.057Z,40.60
2019-03-22T12:43:07.714Z,40.30
2019-03-22T12:44:05.819Z,40.30
2019-03-22T12:45:06.013Z,40.00
2019-03-22T12:46:05.097Z,40.10
2019-03-22T12:47:05.258Z,39.90
2019-03-22T12:48:05.458Z,40.00
2019-03-22T12:49:05.543Z,39.70
2019-03-22T12:50:05.647Z,39.80
2019-03-22T12:51:05.728Z,39.60
2019-03-22T12:52:08.384Z,39.90
2019-03-22T12:53:05.434Z,39.90